createdAt,value
2019-01-22T00:00:57.481Z,39.47
2019-01-22T00:03:24.257Z,37.98
2019-01-22T00:05:51.019Z,41.02
2019-01-22T00:08:17.796Z,34.05
2019-01-22T00:10:44.564Z,35.33
2019-01-22T00:13:11.333Z,37.35
2019-01-22T00:15:38.096Z,42.20
2019-01-22T00:18:04.890Z,34.23
2019-01-22T00:20:31.704Z,41.37
2019-01-22T00:23:02.822Z,41.10
2019-01-22T00:25:25.245Z,34.25
2019-01-22T00:27:52.001Z,41.55
2019-01-22T00:30:18.804Z,34.35
2019-01-22T00:32:45.578Z,31.07
2019-01-22T00:35:12.335Z,37.65
2019-01-22T00:37:39.377Z,35.78
2019-01-22T00:40:07.985Z,32.63
2019-01-22T00:42:34.743Z,32.80
2019-01-22T00:45:01.526Z,31.37
2019-01-22T00:47:28.285Z,31.77
2019-01-22T00:49:55.040Z,33.18
2019-01-22T00:52:21.803Z,30.08
2019-01-22T00:54:48.592Z,30.82
2019-01-22T00:57:15.341Z,39.10
2019-01-22T00:59:42.115Z,38.35
2019-01-22T01:02:08.888Z,28.80
2019-01-22T01:04:35.662Z,39.78
2019-01-22T01:07:02.445Z,36.40
2019-01-22T01:09:29.208Z,39.50
2019-01-22T01:11:55.968Z,36.13
2019-01-22T01:14:22.745Z,35.40
2019-01-22T01:16:49.501Z,37.00
2019-01-22T01:19:16.279Z,35.37
2019-01-22T01:21:43.078Z,35.00
2019-01-22T01:24:09.852Z,33.70
2019-01-22T01:26:36.613Z,40.28
2019-01-22T01:29:03.392Z,38.10
2019-01-22T01:31:30.157Z,43.98
2019-01-22T01:33:56.904Z,32.28
2019-01-22T01:36:23.659Z,34.03
2019-01-22T01:38:50.428Z,40.88
2019-01-22T01:41:17.189Z,35.80
2019-01-22T01:43:43.965Z,36.70
2019-01-22T01:46:10.727Z,36.53
2019-01-22T01:48:37.488Z,37.63
2019-01-22T01:51:04.296Z,36.35
2019-01-22T01:53:31.081Z,32.28
2019-01-22T01:55:57.828Z,33.58
2019-01-22T01:58:24.590Z,31.80
2019-01-22T02:00:51.396Z,35.15
2019-01-22T02:03:18.150Z,38.60
2019-01-22T02:05:44.925Z,33.55
2019-01-22T02:08:11.677Z,39.20
2019-01-22T02:10:38.940Z,42.95
2019-01-22T02:13:09.695Z,39.08
2019-01-22T02:15:45.928Z,37.65
2019-01-22T02:18:32.604Z,39.83
2019-01-22T02:21:24.988Z,37.35
2019-01-22T02:24:04.972Z,39.15
2019-01-22T02:27:00.421Z,35.70
2019-01-22T02:29:37.868Z,37.35
2019-01-22T02:32:28.243Z,37.85
2019-01-22T02:35:26.353Z,33.33
2019-01-22T02:38:22.680Z,41.73
2019-01-22T02:41:03.312Z,41.73
2019-01-22T02:43:56.492Z,37.60
2019-01-22T02:46:33.510Z,48.20
2019-01-22T02:49:20.617Z,46.80
2019-01-22T02:52:13.433Z,43.55
2019-01-22T02:54:50.325Z,49.15
2019-01-22T02:57:42.316Z,49.35
2019-01-22T03:00:53.041Z,50.70
2019-01-22T03:03:35.488Z,47.55
2019-01-22T03:06:22.993Z,55.70
2019-01-22T03:09:29.736Z,45.45
2019-01-22T03:12:06.006Z,83.52
2019-01-22T03:14:52.620Z,58.25
2019-01-22T03:17:31.381Z,100.07
2019-01-22T03:20:08.781Z,70.62
2019-01-22T03:23:03.448Z,91.77
2019-01-22T03:25:47.675Z,111.52
2019-01-22T03:28:33.944Z,81.32
2019-01-22T03:31:28.662Z,66.92
2019-01-22T03:34:11.580Z,67.15
2019-01-22T03:37:02.667Z,68.83
2019-01-22T03:39:52.286Z,71.17
2019-01-22T03:43:00.931Z,64.05
2019-01-22T03:45:56.654Z,72.27
2019-01-22T03:48:37.921Z,60.78
2019-01-22T03:51:19.516Z,95.53
2019-01-22T03:53:57.724Z,72.00
2019-01-22T03:56:34.812Z,73.12
2019-01-22T03:59:01.574Z,72.45
2019-01-22T04:01:30.325Z,95.77
2019-01-22T04:03:57.100Z,81.92
2019-01-22T04:06:31.062Z,94.55
2019-01-22T04:09:00.669Z,78.20
2019-01-22T04:11:32.958Z,94.30
2019-01-22T04:13:59.725Z,98.92
2019-01-22T04:16:26.518Z,90.97
2019-01-22T04:18:53.265Z,80.03
2019-01-22T04:21:23.084Z,89.77
2019-01-22T04:24:02.028Z,90.05
2019-01-22T04:26:43.164Z,70.07
2019-01-22T04:29:35.914Z,87.75
2019-01-22T04:32:14.613Z,94.93
2019-01-22T04:34:51.856Z,84.50
2019-01-22T04:37:48.524Z,102.00
2019-01-22T04:40:25.835Z,98.35
2019-01-22T04:43:29.824Z,79.10
2019-01-22T04:46:31.328Z,94.92
2019-01-22T04:49:09.522Z,97.82
2019-01-22T04:51:58.492Z,80.70
2019-01-22T04:54:34.962Z,93.42
2019-01-22T04:57:11.841Z,100.33
2019-01-22T04:59:52.870Z,80.50
2019-01-22T05:02:43.264Z,103.90
2019-01-22T05:05:20.993Z,105.87
2019-01-22T05:08:05.882Z,81.30
2019-01-22T05:10:47.865Z,94.67
2019-01-22T05:13:46.142Z,107.72
2019-01-22T05:16:37.164Z,67.80
2019-01-22T05:19:32.743Z,92.90
2019-01-22T05:22:18.873Z,93.82
2019-01-22T05:25:18.968Z,84.67
2019-01-22T05:28:16.905Z,87.30
2019-01-22T05:30:55.165Z,85.53
2019-01-22T05:33:33.328Z,79.70
2019-01-22T05:36:26.229Z,64.90
2019-01-22T05:39:10.834Z,78.87
2019-01-22T05:41:49.216Z,84.83
2019-01-22T05:44:32.444Z,75.13
2019-01-22T05:47:39.576Z,89.65
2019-01-22T05:50:31.708Z,81.75
2019-01-22T05:53:19.397Z,66.27
2019-01-22T05:55:46.821Z,82.27
2019-01-22T05:58:38.284Z,88.57
2019-01-22T06:01:13.996Z,83.50
2019-01-22T06:04:03.189Z,84.22
2019-01-22T06:07:10.301Z,87.82
2019-01-22T06:10:10.136Z,68.17
2019-01-22T06:13:05.705Z,83.42
2019-01-22T06:15:49.430Z,75.33
2019-01-22T06:18:24.990Z,92.88
2019-01-22T06:21:19.613Z,73.87
2019-01-22T06:23:59.046Z,85.32
2019-01-22T06:26:35.265Z,90.80
2019-01-22T06:29:42.221Z,85.55
2019-01-22T06:32:36.157Z,78.33
2019-01-22T06:35:15.554Z,94.47
2019-01-22T06:37:53.259Z,95.53
2019-01-22T06:40:46.950Z,86.23
2019-01-22T06:43:29.701Z,94.55
2019-01-22T06:46:13.900Z,81.93
2019-01-22T06:48:57.632Z,103.45
2019-01-22T06:51:52.021Z,94.52
2019-01-22T06:54:44.260Z,91.73
2019-01-22T06:57:52.065Z,99.00
2019-01-22T07:00:49.480Z,90.00
2019-01-22T07:03:38.228Z,89.32
2019-01-22T07:06:22.518Z,97.57
2019-01-22T07:09:22.133Z,71.10
2019-01-22T07:12:32.494Z,83.67
2019-01-22T07:15:28.326Z,89.20
2019-01-22T07:18:13.293Z,70.00
2019-01-22T07:21:09.758Z,81.80
2019-01-22T07:24:06.725Z,81.95
2019-01-22T07:26:44.580Z,80.30
2019-01-22T07:29:35.486Z,78.67
2019-01-22T07:32:12.289Z,88.42
2019-01-22T07:35:02.298Z,89.15
2019-01-22T07:37:51.918Z,77.70
2019-01-22T07:40:51.852Z,86.23
2019-01-22T07:43:25.833Z,92.33
2019-01-22T07:46:11.577Z,86.75
2019-01-22T07:48:46.992Z,75.37
2019-01-22T07:51:26.965Z,88.42
2019-01-22T07:54:12.552Z,86.17
2019-01-22T07:56:47.316Z,72.87
2019-01-22T07:59:37.924Z,86.80
2019-01-22T08:02:30.816Z,74.83
2019-01-22T08:05:09.824Z,90.60
2019-01-22T08:07:57.704Z,80.65
2019-01-22T08:10:38.728Z,72.80
2019-01-22T08:13:25.250Z,90.22
2019-01-22T08:16:09.152Z,85.97
2019-01-22T08:18:53.842Z,78.17
2019-01-22T08:21:30.620Z,101.62
2019-01-22T08:24:08.604Z,90.32
2019-01-22T08:26:53.570Z,75.17
2019-01-22T08:29:53.605Z,89.67
2019-01-22T08:33:02.576Z,78.35
2019-01-22T08:35:48.608Z,77.53
2019-01-22T08:38:33.397Z,102.55
2019-01-22T08:41:39.400Z,84.42
2019-01-22T08:44:37.670Z,69.07
2019-01-22T08:47:16.057Z,77.62
2019-01-22T08:50:11.533Z,75.10
2019-01-22T08:53:00.180Z,62.10
2019-01-22T08:55:41.169Z,76.07
2019-01-22T08:58:37.224Z,74.80
2019-01-22T09:01:35.643Z,62.90
2019-01-22T09:04:29.982Z,70.20
2019-01-22T09:07:12.970Z,67.78
2019-01-22T09:10:13.568Z,62.03
2019-01-22T09:12:55.938Z,67.03
2019-01-22T09:15:40.415Z,65.42
2019-01-22T09:18:34.445Z,67.35
2019-01-22T09:21:22.107Z,57.07
2019-01-22T09:23:57.130Z,68.95
2019-01-22T09:27:04.071Z,73.25
2019-01-22T09:30:01.482Z,57.37
2019-01-22T09:32:59.045Z,63.08
2019-01-22T09:35:51.349Z,72.85
2019-01-22T09:38:18.144Z,65.73
2019-01-22T09:40:44.901Z,68.72
2019-01-22T09:43:11.676Z,67.27
2019-01-22T09:45:38.553Z,53.00
2019-01-22T09:48:05.310Z,56.00
2019-01-22T09:50:32.138Z,55.90
2019-01-22T09:52:58.899Z,60.93
2019-01-22T09:55:25.683Z,61.75
2019-01-22T09:57:52.427Z,62.58
2019-01-22T10:00:19.214Z,56.70
2019-01-22T10:02:45.977Z,63.25
2019-01-22T10:05:12.757Z,62.48
2019-01-22T10:07:39.520Z,56.27
2019-01-22T10:10:09.859Z,60.67
2019-01-22T10:12:36.627Z,71.12
2019-01-22T10:15:04.346Z,66.47
2019-01-22T10:17:31.124Z,55.00
2019-01-22T10:19:57.904Z,57.55
2019-01-22T10:22:24.656Z,54.13
2019-01-22T10:24:51.429Z,51.80
2019-01-22T10:27:18.216Z,55.23
2019-01-22T10:29:44.996Z,52.05
2019-01-22T10:32:11.768Z,48.80
2019-01-22T10:34:38.511Z,48.20
2019-01-22T10:37:05.301Z,51.45
2019-01-22T10:39:32.083Z,50.80
2019-01-22T10:41:58.897Z,52.35
2019-01-22T10:44:25.649Z,49.85
2019-01-22T10:46:52.448Z,44.53
2019-01-22T10:49:19.224Z,47.50
2019-01-22T10:51:46.009Z,47.85
2019-01-22T10:54:12.781Z,44.00
2019-01-22T10:56:39.554Z,61.80
2019-01-22T10:59:06.507Z,53.05
2019-01-22T11:01:34.253Z,44.50
2019-01-22T11:04:01.037Z,48.28
2019-01-22T11:06:27.858Z,47.40
2019-01-22T11:08:54.648Z,46.05
2019-01-22T11:11:21.445Z,46.70
2019-01-22T11:13:48.229Z,47.15
2019-01-22T11:16:15.170Z,42.00
2019-01-22T11:18:41.802Z,46.85
2019-01-22T11:21:08.613Z,45.00
2019-01-22T11:23:35.402Z,45.40
2019-01-22T11:26:02.208Z,44.50
2019-01-22T11:28:29.011Z,44.95
2019-01-22T11:30:55.801Z,36.30
2019-01-22T11:33:22.568Z,40.63
2019-01-22T11:35:49.365Z,41.37
2019-01-22T11:38:16.141Z,40.10
2019-01-22T11:40:45.088Z,40.05
2019-01-22T11:43:11.889Z,36.47
2019-01-22T11:45:38.676Z,37.20
2019-01-22T11:48:07.097Z,44.27
2019-01-22T11:50:33.893Z,41.33
2019-01-22T11:53:00.786Z,40.17
2019-01-22T11:55:27.553Z,40.35
2019-01-22T11:57:54.362Z,36.20
2019-01-22T12:00:29.053Z,40.48
2019-01-22T12:02:55.862Z,37.20
2019-01-22T12:05:22.652Z,38.67
2019-01-22T12:07:49.446Z,40.85
2019-01-22T12:10:16.220Z,38.07
2019-01-22T12:12:43.040Z,41.00
2019-01-22T12:15:11.833Z,41.75
2019-01-22T12:17:38.621Z,36.50
2019-01-22T12:20:09.669Z,43.55
2019-01-22T12:22:36.466Z,42.48
2019-01-22T12:25:03.877Z,43.17
2019-01-22T12:27:30.689Z,44.27
2019-01-22T12:29:57.458Z,46.88
2019-01-22T12:32:24.265Z,42.70
2019-01-22T12:34:51.029Z,45.10
2019-01-22T12:37:17.866Z,64.30
2019-01-22T12:39:44.631Z,58.43
2019-01-22T12:42:11.462Z,52.60
2019-01-22T12:44:38.231Z,51.23
2019-01-22T12:47:05.031Z,42.83
2019-01-22T12:49:31.797Z,47.40
2019-01-22T12:51:58.584Z,45.50
2019-01-22T12:54:25.364Z,47.50
2019-01-22T12:56:52.137Z,45.60
2019-01-22T12:59:18.884Z,47.38
2019-01-22T13:01:45.661Z,43.02
2019-01-22T13:04:12.450Z,46.20
2019-01-22T13:06:39.212Z,43.70
2019-01-22T13:09:06.785Z,44.63
2019-01-22T13:11:33.601Z,46.18
2019-01-22T13:14:00.375Z,40.07
2019-01-22T13:16:27.164Z,44.38
2019-01-22T13:18:53.998Z,47.10
2019-01-22T13:21:22.829Z,43.52
2019-01-22T13:23:49.661Z,43.77
2019-01-22T13:26:16.434Z,45.75
2019-01-22T13:28:43.223Z,47.70
2019-01-22T13:31:12.005Z,46.33
2019-01-22T13:33:38.825Z,48.83
2019-01-22T13:36:05.611Z,46.90
2019-01-22T13:38:32.408Z,40.93
2019-01-22T13:40:59.195Z,46.30
2019-01-22T13:43:27.086Z,46.45
2019-01-22T13:45:53.886Z,43.03
2019-01-22T13:48:22.277Z,48.38
2019-01-22T13:50:49.068Z,45.23
2019-01-22T13:53:15.857Z,49.93
2019-01-22T13:55:42.633Z,51.37
2019-01-22T13:58:09.446Z,49.63
2019-01-22T14:00:36.228Z,46.28
2019-01-22T14:03:03.066Z,51.02
2019-01-22T14:05:29.874Z,47.00
2019-01-22T14:07:56.723Z,52.58
2019-01-22T14:10:23.498Z,52.58
2019-01-22T14:12:50.298Z,50.23
2019-01-22T14:15:20.418Z,47.70
2019-01-22T14:17:47.231Z,46.13
2019-01-22T14:20:14.194Z,48.02
2019-01-22T14:22:40.994Z,43.83
2019-01-22T14:25:09.475Z,45.80
2019-01-22T14:27:36.321Z,50.17
2019-01-22T14:30:04.027Z,50.30
2019-01-22T14:32:42.427Z,49.67
2019-01-22T14:35:09.250Z,49.60
2019-01-22T14:37:36.080Z,49.67
2019-01-22T14:40:02.873Z,49.27
2019-01-22T14:42:29.673Z,50.08
2019-01-22T14:44:56.449Z,46.37
2019-01-22T14:47:23.226Z,48.02
2019-01-22T14:49:50.018Z,54.85
2019-01-22T14:52:16.854Z,50.05
2019-01-22T14:54:43.657Z,48.92
2019-01-22T14:57:13.815Z,48.17
2019-01-22T14:59:40.621Z,45.63
2019-01-22T15:02:07.431Z,48.17
2019-01-22T15:04:35.257Z,41.07
2019-01-22T15:07:02.063Z,43.02
2019-01-22T15:09:28.877Z,40.53
2019-01-22T15:11:55.653Z,39.30
2019-01-22T15:14:22.597Z,32.88
2019-01-22T15:16:49.458Z,30.93
2019-01-22T15:19:16.232Z,29.40
2019-01-22T15:21:42.996Z,29.40
2019-01-22T15:24:10.128Z,29.53
2019-01-22T15:26:39.561Z,27.07
2019-01-22T15:29:04.026Z,24.47
2019-01-22T15:31:30.888Z,25.80
2019-01-22T15:33:58.133Z,26.23
2019-01-22T15:36:27.206Z,25.48
2019-01-22T15:38:54.883Z,54.77
2019-01-22T15:41:28.626Z,31.93
2019-01-22T15:43:55.570Z,23.83
2019-01-22T15:46:22.944Z,21.37
2019-01-22T15:48:50.063Z,22.70
2019-01-22T15:51:16.858Z,20.37
2019-01-22T15:53:43.697Z,23.90
2019-01-22T15:56:10.553Z,22.67
2019-01-22T15:58:37.492Z,24.17
2019-01-22T16:01:04.309Z,22.13
2019-01-22T16:03:31.220Z,20.60
2019-01-22T16:05:58.094Z,21.42
2019-01-22T16:08:24.898Z,22.67
2019-01-22T16:10:51.897Z,26.00
2019-01-22T16:13:18.908Z,25.20
2019-01-22T16:15:45.737Z,23.70
2019-01-22T16:18:12.653Z,20.55
2019-01-22T16:20:39.453Z,22.32
2019-01-22T16:23:07.314Z,19.67
2019-01-22T16:25:34.085Z,21.93
2019-01-22T16:28:00.943Z,23.98
2019-01-22T16:30:29.913Z,23.80
2019-01-22T16:32:56.764Z,22.15
2019-01-22T16:35:24.985Z,23.57
2019-01-22T16:37:52.062Z,22.17
2019-01-22T16:40:18.863Z,24.17
2019-01-22T16:42:45.928Z,25.35
2019-01-22T16:45:34.119Z,22.33
2019-01-22T16:48:00.965Z,26.10
2019-01-22T16:50:29.684Z,23.62
2019-01-22T16:52:56.497Z,27.37
2019-01-22T16:55:26.480Z,30.02
2019-01-22T16:57:53.386Z,26.40
2019-01-22T17:00:22.819Z,28.52
2019-01-22T17:02:49.645Z,25.13
2019-01-22T17:05:16.537Z,26.85
2019-01-22T17:07:43.374Z,30.68
2019-01-22T17:10:11.888Z,25.50
2019-01-22T17:12:38.693Z,28.55
2019-01-22T17:15:06.462Z,30.03
2019-01-22T17:17:33.306Z,30.13
2019-01-22T17:20:00.153Z,29.52
2019-01-22T17:22:26.963Z,30.95
2019-01-22T17:24:53.799Z,28.67
2019-01-22T17:27:20.577Z,32.63
2019-01-22T17:29:47.374Z,32.80
2019-01-22T17:32:23.281Z,40.67
2019-01-22T17:34:52.250Z,54.53
2019-01-22T17:37:22.166Z,33.85
2019-01-22T17:39:48.997Z,32.17
2019-01-22T17:42:15.838Z,34.30
2019-01-22T17:44:42.652Z,34.83
2019-01-22T17:47:09.640Z,29.00
2019-01-22T17:49:37.580Z,32.17
2019-01-22T17:52:04.504Z,33.45
2019-01-22T17:54:31.313Z,31.17
2019-01-22T17:56:59.177Z,31.97
2019-01-22T17:59:26.017Z,36.35
2019-01-22T18:01:52.838Z,29.97
2019-01-22T18:04:20.637Z,33.53
2019-01-22T18:06:47.472Z,33.18
2019-01-22T18:09:16.312Z,32.63
2019-01-22T18:11:43.097Z,33.83
2019-01-22T18:14:09.964Z,33.70
2019-01-22T18:16:36.778Z,34.17
2019-01-22T18:19:03.753Z,36.15
2019-01-22T18:21:30.545Z,35.52
2019-01-22T18:23:57.362Z,38.53
2019-01-22T18:26:24.165Z,37.23
2019-01-22T18:28:50.969Z,33.92
2019-01-22T18:31:17.800Z,32.00
2019-01-22T18:33:44.637Z,29.85
2019-01-22T18:36:11.485Z,34.33
2019-01-22T18:38:38.290Z,31.33
2019-01-22T18:41:05.124Z,36.45
2019-01-22T18:43:31.937Z,37.50
2019-01-22T18:45:58.781Z,35.67
2019-01-22T18:48:25.588Z,33.38
2019-01-22T18:50:52.669Z,34.53
2019-01-22T18:53:19.461Z,33.93
2019-01-22T18:55:46.301Z,37.38
2019-01-22T18:58:15.213Z,36.85
2019-01-22T19:00:42.021Z,33.43
2019-01-22T19:03:08.821Z,36.20
2019-01-22T19:05:35.662Z,39.23
2019-01-22T19:08:09.094Z,35.67
2019-01-22T19:10:35.701Z,35.70
2019-01-22T19:13:02.645Z,32.73
2019-01-22T19:15:30.265Z,32.60
2019-01-22T19:17:57.327Z,37.30
2019-01-22T19:20:24.390Z,36.30
2019-01-22T19:22:51.321Z,37.23
2019-01-22T19:25:20.304Z,37.93
2019-01-22T19:27:47.605Z,38.58
2019-01-22T19:30:16.737Z,35.90
2019-01-22T19:32:44.027Z,28.50
2019-01-22T19:35:11.362Z,35.80
2019-01-22T19:37:38.539Z,31.83
2019-01-22T19:40:07.444Z,36.40
2019-01-22T19:42:34.508Z,38.88
2019-01-22T19:45:01.318Z,38.10
2019-01-22T19:47:28.349Z,36.45
2019-01-22T19:49:55.124Z,41.40
2019-01-22T19:52:21.940Z,36.27
2019-01-22T19:54:48.722Z,41.35
2019-01-22T19:57:15.515Z,40.95
2019-01-22T19:59:42.314Z,44.83
2019-01-22T20:02:09.120Z,45.40
2019-01-22T20:04:35.951Z,44.73
2019-01-22T20:07:02.785Z,42.80
2019-01-22T20:09:29.557Z,46.95
2019-01-22T20:11:56.362Z,43.48
2019-01-22T20:14:23.150Z,44.30
2019-01-22T20:16:49.963Z,44.80
2019-01-22T20:19:16.786Z,50.45
2019-01-22T20:21:43.601Z,40.77
2019-01-22T20:24:10.377Z,49.88
2019-01-22T20:26:37.219Z,48.55
2019-01-22T20:29:04.053Z,39.00
2019-01-22T20:31:30.886Z,46.92
2019-01-22T20:33:57.701Z,46.37
2019-01-22T20:36:24.609Z,43.30
2019-01-22T20:38:51.521Z,45.85
2019-01-22T20:41:18.323Z,47.17
2019-01-22T20:43:45.110Z,43.03
2019-01-22T20:46:11.911Z,44.83
2019-01-22T20:48:38.753Z,43.92
2019-01-22T20:51:05.585Z,37.23
2019-01-22T20:53:32.373Z,42.48
2019-01-22T20:55:59.224Z,44.03
2019-01-22T20:58:26.013Z,39.83
2019-01-22T21:00:52.881Z,41.40
2019-01-22T21:03:19.714Z,40.70
2019-01-22T21:05:46.529Z,42.60
2019-01-22T21:08:13.440Z,38.60
2019-01-22T21:10:40.231Z,45.20
2019-01-22T21:13:07.047Z,44.30
2019-01-22T21:15:33.856Z,42.87
2019-01-22T21:18:00.653Z,44.60
2019-01-22T21:20:27.553Z,48.20
2019-01-22T21:22:59.135Z,40.00
2019-01-22T21:25:25.945Z,48.50
2019-01-22T21:27:52.762Z,51.25
2019-01-22T21:30:25.366Z,50.40
2019-01-22T21:32:52.182Z,48.50
2019-01-22T21:35:18.997Z,49.77
2019-01-22T21:37:45.809Z,48.80
2019-01-22T21:40:12.621Z,48.13
2019-01-22T21:42:39.449Z,47.83
2019-01-22T21:45:08.975Z,54.67
2019-01-22T21:47:35.741Z,51.70
2019-01-22T21:50:02.769Z,50.55
2019-01-22T21:52:29.560Z,45.98
2019-01-22T21:54:56.376Z,45.97
2019-01-22T21:57:23.193Z,48.15
2019-01-22T21:59:49.993Z,49.13
2019-01-22T22:02:16.851Z,45.75
2019-01-22T22:04:43.637Z,42.67
2019-01-22T22:07:10.434Z,49.03
2019-01-22T22:09:37.201Z,50.98
2019-01-22T22:12:04.008Z,48.40
2019-01-22T22:14:30.792Z,53.25
2019-01-22T22:16:57.585Z,49.30
2019-01-22T22:19:24.349Z,49.15
2019-01-22T22:21:51.120Z,52.73
2019-01-22T22:24:17.884Z,50.55
2019-01-22T22:26:44.701Z,47.47
2019-01-22T22:29:11.444Z,48.68
2019-01-22T22:31:38.198Z,53.52
2019-01-22T22:34:04.977Z,42.53
2019-01-22T22:36:31.745Z,52.60
2019-01-22T22:38:58.545Z,53.80
2019-01-22T22:41:25.310Z,42.30
2019-01-22T22:43:52.154Z,51.42
2019-01-22T22:46:18.913Z,52.60
2019-01-22T22:48:45.700Z,51.00
2019-01-22T22:51:12.505Z,54.40
2019-01-22T22:53:39.277Z,53.63
2019-01-22T22:56:06.049Z,50.30
2019-01-22T22:58:32.841Z,58.30
2019-01-22T23:01:23.673Z,56.70
2019-01-22T23:03:50.492Z,50.43
2019-01-22T23:06:17.265Z,58.13
2019-01-22T23:08:44.049Z,59.08
2019-01-22T23:11:10.829Z,53.13
2019-01-22T23:13:37.613Z,61.35
2019-01-22T23:16:04.407Z,57.70
2019-01-22T23:18:31.201Z,50.13
2019-01-22T23:20:57.978Z,62.15
2019-01-22T23:23:24.756Z,64.17
2019-01-22T23:25:51.513Z,65.05
2019-01-22T23:28:18.320Z,51.63
2019-01-22T23:30:45.105Z,56.08
2019-01-22T23:33:11.893Z,57.93
2019-01-22T23:35:38.751Z,55.83
2019-01-22T23:38:05.526Z,59.08
2019-01-22T23:40:32.312Z,51.23
2019-01-22T23:42:59.124Z,55.30
2019-01-22T23:45:25.925Z,52.05
2019-01-22T23:47:52.764Z,51.50
2019-01-22T23:50:19.619Z,56.20
2019-01-22T23:52:46.413Z,51.58
2019-01-22T23:55:13.204Z,50.40
2019-01-22T23:57:40.060Z,53.40
